sensor_id;sensor_type;location;lat;lon;timestamp;pressure;altitude;pressure_sealevel;temperature;humidity
61337;BME280;47212;41.326;2.104;2024-03-23T00:53:55;101583.16;;;17.20;64.01
61337;BME280;47212;41.326;2.104;2024-03-23T00:59:03;101600.25;;;17.17;63.83
61337;BME280;47212;41.326;2.104;2024-03-23T01:04:14;101584.88;;;17.11;64.06
61337;BME280;47212;41.326;2.104;2024-03-23T01:09:17;101583.22;;;17.10;63.96
61337;BME280;47212;41.326;2.104;2024-03-23T01:14:21;101570.59;;;17.09;63.46
61337;BME280;47212;41.326;2.104;2024-03-23T01:19:25;101557.94;;;17.08;63.27
61337;BME280;47212;41.326;2.104;2024-03-23T01:24:34;101552.44;;;17.08;63.79
61337;BME280;47212;41.326;2.104;2024-03-23T01:29:41;101548.56;;;17.09;63.47
61337;BME280;47212;41.326;2.104;2024-03-23T01:34:48;101551.63;;;17.08;63.08
61337;BME280;47212;41.326;2.104;2024-03-23T01:39:52;101540.63;;;17.08;63.25
61337;BME280;47212;41.326;2.104;2024-03-23T01:44:54;101538.97;;;17.07;63.33
61337;BME280;47212;41.326;2.104;2024-03-23T01:49:57;101531.81;;;17.06;63.19
61337;BME280;47212;41.326;2.104;2024-03-23T01:55:04;101520.00;;;17.05;63.16
61337;BME280;47212;41.326;2.104;2024-03-23T02:00:11;101515.63;;;17.04;63.32
61337;BME280;47212;41.326;2.104;2024-03-23T02:05:15;101519.75;;;17.02;62.93
61337;BME280;47212;41.326;2.104;2024-03-23T02:10:19;101518.44;;;16.94;63.20
61337;BME280;47212;41.326;2.104;2024-03-23T02:20:32;101526.28;;;16.72;63.88
61337;BME280;47212;41.326;2.104;2024-03-23T02:25:34;101537.59;;;16.60;64.03
61337;BME280;47212;41.326;2.104;2024-03-23T02:30:37;101520.88;;;16.51;64.10
61337;BME280;47212;41.326;2.104;2024-03-23T02:35:38;101526.94;;;16.43;64.23
61337;BME280;47212;41.326;2.104;2024-03-23T02:41:07;101516.53;;;16.35;65.05
61337;BME280;47212;41.326;2.104;2024-03-23T02:46:14;101527.56;;;16.30;64.93
61337;BME280;47212;41.326;2.104;2024-03-23T02:51:16;101521.22;;;16.30;64.97
61337;BME280;47212;41.326;2.104;2024-03-23T02:56:18;101510.53;;;16.28;64.92
61337;BME280;47212;41.326;2.104;2024-03-23T03:01:21;101502.28;;;16.28;64.55
61337;BME280;47212;41.326;2.104;2024-03-23T03:06:30;101493.22;;;16.28;65.08
61337;BME280;47212;41.326;2.104;2024-03-23T03:11:31;101504.22;;;16.28;64.58
61337;BME280;47212;41.326;2.104;2024-03-23T03:16:35;101512.16;;;16.29;64.56
61337;BME280;47212;41.326;2.104;2024-03-23T03:21:36;101519.31;;;16.30;64.80
61337;BME280;47212;41.326;2.104;2024-03-23T03:26:39;101509.97;;;16.31;64.43
61337;BME280;47212;41.326;2.104;2024-03-23T03:32:02;101519.56;;;16.34;64.29
61337;BME280;47212;41.326;2.104;2024-03-23T03:37:03;101518.19;;;16.36;64.21
61337;BME280;47212;41.326;2.104;2024-03-23T03:42:06;101516.25;;;16.37;64.38
61337;BME280;47212;41.326;2.104;2024-03-23T03:47:09;101513.25;;;16.33;64.38
61337;BME280;47212;41.326;2.104;2024-03-23T03:52:15;101526.19;;;16.28;64.72
61337;BME280;47212;41.326;2.104;2024-03-23T03:57:18;101524.84;;;16.20;64.37
61337;BME280;47212;41.326;2.104;2024-03-23T04:02:23;101522.13;;;16.15;64.64
61337;BME280;47212;41.326;2.104;2024-03-23T04:07:26;101522.69;;;16.12;64.63
61337;BME280;47212;41.326;2.104;2024-03-23T04:12:29;101518.56;;;16.09;65.17
61337;BME280;47212;41.326;2.104;2024-03-23T04:17:31;101515.81;;;16.09;65.22
61337;BME280;47212;41.326;2.104;2024-03-23T04:22:40;101517.22;;;16.07;64.91
61337;BME280;47212;41.326;2.104;2024-03-23T04:27:45;101522.16;;;16.05;65.07
61337;BME280;47212;41.326;2.104;2024-03-23T04:32:50;101512.56;;;16.02;65.15
61337;BME280;47212;41.326;2.104;2024-03-23T04:37:53;101518.88;;;15.98;64.95
61337;BME280;47212;41.326;2.104;2024-03-23T04:42:56;101500.78;;;15.91;64.94
61337;BME280;47212;41.326;2.104;2024-03-23T04:48:00;101510.69;;;15.87;65.25
61337;BME280;47212;41.326;2.104;2024-03-23T04:53:02;101521.41;;;15.84;65.74
61337;BME280;47212;41.326;2.104;2024-03-23T04:58:15;101524.44;;;15.82;65.40
61337;BME280;47212;41.326;2.104;2024-03-23T05:03:21;101527.47;;;15.76;65.42
61337;BME280;47212;41.326;2.104;2024-03-23T05:08:57;101546.69;;;15.71;66.15
61337;BME280;47212;41.326;2.104;2024-03-23T05:14:02;101544.78;;;15.66;66.48
61337;BME280;47212;41.326;2.104;2024-03-23T05:19:04;101568.66;;;15.66;66.55
61337;BME280;47212;41.326;2.104;2024-03-23T05:24:05;101571.13;;;15.62;66.24
61337;BME280;47212;41.326;2.104;2024-03-23T05:42:18;101581.25;;;15.72;66.88
61337;BME280;47212;41.326;2.104;2024-03-23T05:48:17;101594.16;;;15.81;66.48
61337;BME280;47212;41.326;2.104;2024-03-23T05:53:25;101592.50;;;15.90;66.05
61337;BME280;47212;41.326;2.104;2024-03-23T05:58:30;101583.16;;;15.97;65.88
61337;BME280;47212;41.326;2.104;2024-03-23T06:03:36;101584.50;;;15.99;65.12
61337;BME280;47212;41.326;2.104;2024-03-23T06:08:43;101582.31;;;16.01;65.42
61337;BME280;47212;41.326;2.104;2024-03-23T06:13:51;101586.41;;;16.04;65.46
61337;BME280;47212;41.326;2.104;2024-03-23T06:18:56;101586.41;;;16.09;65.40
61337;BME280;47212;41.326;2.104;2024-03-23T06:23:58;101606.19;;;16.06;65.09
61337;BME280;47212;41.326;2.104;2024-03-23T06:29:04;101616.63;;;16.09;65.05
61337;BME280;47212;41.326;2.104;2024-03-23T06:34:12;101632.53;;;16.12;64.74
61337;BME280;47212;41.326;2.104;2024-03-23T06:39:18;101629.25;;;16.15;64.94
61337;BME280;47212;41.326;2.104;2024-03-23T06:44:25;101638.56;;;16.24;65.02
61337;BME280;47212;41.326;2.104;2024-03-23T06:49:26;101661.06;;;16.36;64.89
61337;BME280;47212;41.326;2.104;2024-03-23T06:54:54;101654.44;;;16.52;64.02
61337;BME280;47212;41.326;2.104;2024-03-23T06:59:56;101669.25;;;16.67;63.57
61337;BME280;47212;41.326;2.104;2024-03-23T07:05:01;101678.00;;;16.84;63.71
61337;BME280;47212;41.326;2.104;2024-03-23T07:10:14;101700.47;;;17.01;63.18
61337;BME280;47212;41.326;2.104;2024-03-23T07:15:22;101689.34;;;17.22;63.04
61337;BME280;47212;41.326;2.104;2024-03-23T07:20:25;101702.47;;;17.40;62.94
61337;BME280;47212;41.326;2.104;2024-03-23T07:25:35;101703.41;;;17.64;62.26
61337;BME280;47212;41.326;2.104;2024-03-23T07:30:41;101696.50;;;17.72;62.52
61337;BME280;47212;41.326;2.104;2024-03-23T07:35:44;101711.34;;;17.76;62.85
61337;BME280;47212;41.326;2.104;2024-03-23T07:40:48;101717.09;;;17.79;63.32
61337;BME280;47212;41.326;2.104;2024-03-23T07:45:56;101720.72;;;18.09;63.40
61337;BME280;47212;41.326;2.104;2024-03-23T07:51:15;101717.53;;;18.55;63.30
61337;BME280;47212;41.326;2.104;2024-03-23T07:56:18;101741.41;;;18.93;62.70
61337;BME280;47212;41.326;2.104;2024-03-23T08:01:23;101736.19;;;19.34;61.95
61337;BME280;47212;41.326;2.104;2024-03-23T08:06:58;101729.38;;;19.69;61.44
61337;BME280;47212;41.326;2.104;2024-03-23T08:12:07;101740.78;;;19.82;60.37
61337;BME280;47212;41.326;2.104;2024-03-23T08:17:14;101730.28;;;19.65;61.30
61337;BME280;47212;41.326;2.104;2024-03-23T08:22:17;101739.66;;;19.45;61.83
61337;BME280;47212;41.326;2.104;2024-03-23T08:27:19;101733.06;;;19.41;62.69
61337;BME280;47212;41.326;2.104;2024-03-23T08:32:26;101738.41;;;19.56;62.88
61337;BME280;47212;41.326;2.104;2024-03-23T08:37:31;101763.91;;;19.48;63.60
61337;BME280;47212;41.326;2.104;2024-03-23T08:42:35;101773.44;;;19.37;64.70
61337;BME280;47212;41.326;2.104;2024-03-23T08:47:43;101783.09;;;19.16;65.95
61337;BME280;47212;41.326;2.104;2024-03-23T08:52:50;101786.53;;;19.02;66.57
61337;BME280;47212;41.326;2.104;2024-03-23T08:57:55;101786.50;;;19.07;66.36
61337;BME280;47212;41.326;2.104;2024-03-23T09:02:58;101785.94;;;19.11;66.80
61337;BME280;47212;41.326;2.104;2024-03-23T09:08:06;101784.47;;;19.37;67.05
61337;BME280;47212;41.326;2.104;2024-03-23T09:13:14;101800.28;;;19.74;65.96
61337;BME280;47212;41.326;2.104;2024-03-23T09:18:32;101805.44;;;20.18;64.55
61337;BME280;47212;41.326;2.104;2024-03-23T09:23:38;101805.06;;;20.44;63.76
61337;BME280;47212;41.326;2.104;2024-03-23T09:28:53;101809.69;;;20.62;63.21
61337;BME280;47212;41.326;2.104;2024-03-23T09:34:03;101819.09;;;20.93;62.70
61337;BME280;47212;41.326;2.104;2024-03-23T09:39:08;101821.38;;;21.19;61.98
61337;BME280;47212;41.326;2.104;2024-03-23T09:44:14;101815.72;;;21.10;61.59
61337;BME280;47212;41.326;2.104;2024-03-23T09:49:17;101826.19;;;20.99;61.28
61337;BME280;47212;41.326;2.104;2024-03-23T09:54:31;101819.09;;;20.93;60.98
61337;BME280;47212;41.326;2.104;2024-03-23T09:59:35;101823.31;;;21.05;60.11
61337;BME280;47212;41.326;2.104;2024-03-23T10:04:44;101828.56;;;21.20;58.99
61337;BME280;47212;41.326;2.104;2024-03-23T10:09:49;101836.69;;;21.30;59.18
61337;BME280;47212;41.326;2.104;2024-03-23T10:15:20;101830.09;;;21.53;56.69
61337;BME280;47212;41.326;2.104;2024-03-23T10:20:23;101825.97;;;21.65;57.55
61337;BME280;47212;41.326;2.104;2024-03-23T10:25:30;101825.94;;;21.92;55.73
61337;BME280;47212;41.326;2.104;2024-03-23T10:30:40;101806.59;;;22.01;55.55
61337;BME280;47212;41.326;2.104;2024-03-23T10:35:48;101803.19;;;22.17;56.67
61337;BME280;47212;41.326;2.104;2024-03-23T10:40:55;101802.66;;;22.15;56.38
61337;BME280;47212;41.326;2.104;2024-03-23T10:46:02;101809.47;;;22.09;56.51
61337;BME280;47212;41.326;2.104;2024-03-23T10:51:10;101791.31;;;22.03;55.26
61337;BME280;47212;41.326;2.104;2024-03-23T10:56:17;101776.47;;;21.85;55.01
61337;BME280;47212;41.326;2.104;2024-03-23T11:01:30;101776.03;;;21.92;54.32
61337;BME280;47212;41.326;2.104;2024-03-23T11:06:43;101771.75;;;21.86;54.32
61337;BME280;47212;41.326;2.104;2024-03-23T11:11:54;101769.75;;;21.64;56.43
61337;BME280;47212;41.326;2.104;2024-03-23T11:17:24;101770.47;;;21.56;54.14
61337;BME280;47212;41.326;2.104;2024-03-23T11:22:47;101759.28;;;21.61;52.92
61337;BME280;47212;41.326;2.104;2024-03-23T11:28:22;101760.41;;;21.74;53.71
61337;BME280;47212;41.326;2.104;2024-03-23T11:34:15;101759.03;;;21.85;51.97
61337;BME280;47212;41.326;2.104;2024-03-23T11:41:18;101765.75;;;21.70;51.75
61337;BME280;47212;41.326;2.104;2024-03-23T11:52:32;101774.88;;;21.57;53.93
61337;BME280;47212;41.326;2.104;2024-03-23T11:57:38;101781.97;;;21.49;56.09
61337;BME280;47212;41.326;2.104;2024-03-23T12:02:40;101778.78;;;21.56;55.65
61337;BME280;47212;41.326;2.104;2024-03-23T12:07:42;101790.25;;;21.63;53.87
61337;BME280;47212;41.326;2.104;2024-03-23T12:13:07;101783.31;;;21.52;53.29
61337;BME280;47212;41.326;2.104;2024-03-23T12:18:29;101783.50;;;21.55;52.51
61337;BME280;47212;41.326;2.104;2024-03-23T12:23:31;101774.06;;;21.70;51.43
61337;BME280;47212;41.326;2.104;2024-03-23T12:28:58;101775.22;;;21.91;50.88
61337;BME280;47212;41.326;2.104;2024-03-23T12:33:59;101764.31;;;21.95;47.49
61337;BME280;47212;41.326;2.104;2024-03-23T12:39:01;101753.22;;;21.95;49.95
61337;BME280;47212;41.326;2.104;2024-03-23T12:44:02;101747.81;;;21.90;50.41
61337;BME280;47212;41.326;2.104;2024-03-23T12:49:04;101740.69;;;21.61;51.00
61337;BME280;47212;41.326;2.104;2024-03-23T12:54:06;101727.88;;;21.29;53.32
61337;BME280;47212;41.326;2.104;2024-03-23T12:59:17;101728.88;;;21.20;55.43
61337;BME280;47212;41.326;2.104;2024-03-23T13:04:34;101724.78;;;21.17;56.03
61337;BME280;47212;41.326;2.104;2024-03-23T13:09:35;101735.66;;;21.14;56.41
61337;BME280;47212;41.326;2.104;2024-03-23T13:14:37;101717.72;;;20.97;56.83
61337;BME280;47212;41.326;2.104;2024-03-23T13:19:38;101721.22;;;21.03;56.67
61337;BME280;47212;41.326;2.104;2024-03-23T13:24:40;101712.78;;;21.08;56.31
61337;BME280;47212;41.326;2.104;2024-03-23T13:29:41;101715.34;;;21.18;56.40
61337;BME280;47212;41.326;2.104;2024-03-23T13:34:43;101710.41;;;21.15;55.88
61337;BME280;47212;41.326;2.104;2024-03-23T13:39:45;101719.97;;;20.95;55.66
61337;BME280;47212;41.326;2.104;2024-03-23T13:44:49;101697.22;;;20.85;56.25
61337;BME280;47212;41.326;2.104;2024-03-23T13:49:51;101694.78;;;20.83;56.89
61337;BME280;47212;41.326;2.104;2024-03-23T13:54:52;101693.66;;;20.84;57.02
61337;BME280;47212;41.326;2.104;2024-03-23T13:59:59;101689.75;;;20.85;57.06
61337;BME280;47212;41.326;2.104;2024-03-23T14:05:13;101693.94;;;20.96;57.49
61337;BME280;47212;41.326;2.104;2024-03-23T14:10:15;101693.53;;;20.89;58.52
61337;BME280;47212;41.326;2.104;2024-03-23T14:15:26;101681.22;;;20.95;59.45
61337;BME280;47212;41.326;2.104;2024-03-23T14:20:31;101670.78;;;20.92;59.34
61337;BME280;47212;41.326;2.104;2024-03-23T14:25:32;101676.72;;;20.72;58.68
61337;BME280;47212;41.326;2.104;2024-03-23T14:30:33;101666.78;;;20.44;58.45
61337;BME280;47212;41.326;2.104;2024-03-23T14:35:42;101659.25;;;20.30;59.42
61337;BME280;47212;41.326;2.104;2024-03-23T14:41:08;101658.63;;;20.20;60.40
61337;BME280;47212;41.326;2.104;2024-03-23T14:46:16;101655.34;;;20.18;60.12
61337;BME280;47212;41.326;2.104;2024-03-23T14:51:26;101648.50;;;20.15;61.91
61337;BME280;47212;41.326;2.104;2024-03-23T14:56:31;101651.84;;;20.12;61.64
61337;BME280;47212;41.326;2.104;2024-03-23T15:01:48;101648.28;;;19.79;62.01
61337;BME280;47212;41.326;2.104;2024-03-23T15:07:03;101639.34;;;19.68;63.26
61337;BME280;47212;41.326;2.104;2024-03-23T15:12:10;101640.88;;;19.75;64.13
61337;BME280;47212;41.326;2.104;2024-03-23T15:17:11;101640.88;;;19.75;65.41
61337;BME280;47212;41.326;2.104;2024-03-23T15:22:12;101650.84;;;19.57;67.24
61337;BME280;47212;41.326;2.104;2024-03-23T15:27:15;101634.34;;;19.33;68.05
61337;BME280;47212;41.326;2.104;2024-03-23T15:32:25;101636.06;;;19.29;69.43
61337;BME280;47212;41.326;2.104;2024-03-23T15:37:31;101628.41;;;19.26;70.04
61337;BME280;47212;41.326;2.104;2024-03-23T15:42:36;101639.81;;;19.19;68.44
61337;BME280;47212;41.326;2.104;2024-03-23T15:47:38;101629.19;;;18.89;69.04
61337;BME280;47212;41.326;2.104;2024-03-23T15:52:40;101632.00;;;18.84;69.69
61337;BME280;47212;41.326;2.104;2024-03-23T15:57:41;101620.34;;;18.68;71.34
61337;BME280;47212;41.326;2.104;2024-03-23T16:02:43;101639.75;;;18.58;73.21
61337;BME280;47212;41.326;2.104;2024-03-23T16:07:44;101626.03;;;18.53;72.46
61337;BME280;47212;41.326;2.104;2024-03-23T16:12:45;101634.00;;;18.54;72.20
61337;BME280;47212;41.326;2.104;2024-03-23T16:17:48;101635.72;;;18.50;72.02
61337;BME280;47212;41.326;2.104;2024-03-23T16:22:54;101628.31;;;18.45;72.80
61337;BME280;47212;41.326;2.104;2024-03-23T16:27:57;101620.28;;;18.25;73.97
61337;BME280;47212;41.326;2.104;2024-03-23T16:33:01;101626.66;;;18.21;72.80
61337;BME280;47212;41.326;2.104;2024-03-23T16:38:07;101640.38;;;17.97;72.08
61337;BME280;47212;41.326;2.104;2024-03-23T16:43:08;101634.25;;;17.76;71.72
61337;BME280;47212;41.326;2.104;2024-03-23T16:48:11;101632.34;;;17.71;72.04
61337;BME280;47212;41.326;2.104;2024-03-23T16:53:12;101636.78;;;17.67;72.04
61337;BME280;47212;41.326;2.104;2024-03-23T16:58:13;101638.50;;;17.58;72.54
61337;BME280;47212;41.326;2.104;2024-03-23T17:03:18;101637.75;;;17.47;73.12
61337;BME280;47212;41.326;2.104;2024-03-23T17:08:22;101640.75;;;17.51;73.32
61337;BME280;47212;41.326;2.104;2024-03-23T17:13:23;101645.19;;;17.47;73.81
61337;BME280;47212;41.326;2.104;2024-03-23T17:18:33;101649.66;;;17.38;75.47
61337;BME280;47212;41.326;2.104;2024-03-23T17:23:42;101649.66;;;17.33;75.33
61337;BME280;47212;41.326;2.104;2024-03-23T17:28:48;101646.66;;;17.29;74.48
61337;BME280;47212;41.326;2.104;2024-03-23T17:33:50;101651.63;;;17.27;73.85
61337;BME280;47212;41.326;2.104;2024-03-23T17:38:56;101648.94;;;17.17;74.49
61337;BME280;47212;41.326;2.104;2024-03-23T17:43:57;101654.69;;;17.20;76.36
61337;BME280;47212;41.326;2.104;2024-03-23T17:49:02;101654.66;;;17.26;75.02
61337;BME280;47212;41.326;2.104;2024-03-23T17:54:04;101661.59;;;17.18;76.54
61337;BME280;47212;41.326;2.104;2024-03-23T17:59:20;101676.75;;;17.10;76.28
61337;BME280;47212;41.326;2.104;2024-03-23T18:04:39;101679.28;;;17.02;75.31
61337;BME280;47212;41.326;2.104;2024-03-23T18:10:22;101680.16;;;16.92;74.87
61337;BME280;47212;41.326;2.104;2024-03-23T18:15:23;101677.44;;;16.87;75.57
61337;BME280;47212;41.326;2.104;2024-03-23T18:20:24;101680.72;;;16.89;75.87
61337;BME280;47212;41.326;2.104;2024-03-23T18:25:25;101679.63;;;16.85;78.18
61337;BME280;47212;41.326;2.104;2024-03-23T18:30:36;101676.91;;;16.80;76.76
61337;BME280;47212;41.326;2.104;2024-03-23T18:35:38;101682.13;;;16.81;76.77
61337;BME280;47212;41.326;2.104;2024-03-23T18:40:44;101682.66;;;16.83;77.34
61337;BME280;47212;41.326;2.104;2024-03-23T18:45:47;101678.53;;;16.86;76.60
61337;BME280;47212;41.326;2.104;2024-03-23T18:50:49;101685.69;;;16.87;76.24
61337;BME280;47212;41.326;2.104;2024-03-23T18:55:54;101689.78;;;16.90;75.89
61337;BME280;47212;41.326;2.104;2024-03-23T19:01:00;101675.75;;;16.91;76.11
61337;BME280;47212;41.326;2.104;2024-03-23T19:06:04;101687.88;;;16.90;76.54
61337;BME280;47212;41.326;2.104;2024-03-23T19:11:18;101695.84;;;16.86;76.65
61337;BME280;47212;41.326;2.104;2024-03-23T19:16:26;101686.25;;;16.79;76.70
61337;BME280;47212;41.326;2.104;2024-03-23T19:21:28;101700.00;;;16.79;76.62
61337;BME280;47212;41.326;2.104;2024-03-23T19:26:36;101707.16;;;16.80;76.99
61337;BME280;47212;41.326;2.104;2024-03-23T19:31:40;101694.22;;;16.80;76.29
61337;BME280;47212;41.326;2.104;2024-03-23T19:36:42;101707.97;;;16.80;76.38
61337;BME280;47212;41.326;2.104;2024-03-23T19:42:03;101701.13;;;16.78;77.44
61337;BME280;47212;41.326;2.104;2024-03-23T19:48:13;101694.00;;;16.72;76.76
61337;BME280;47212;41.326;2.104;2024-03-23T19:53:56;101712.13;;;16.78;77.27
61337;BME280;47212;41.326;2.104;2024-03-23T19:59:00;101709.38;;;16.78;76.53
61337;BME280;47212;41.326;2.104;2024-03-23T20:04:29;101708.25;;;16.79;76.60
61337;BME280;47212;41.326;2.104;2024-03-23T20:09:30;101701.69;;;16.75;77.91
61337;BME280;47212;41.326;2.104;2024-03-23T20:14:34;101705.53;;;16.74;76.77
61337;BME280;47212;41.326;2.104;2024-03-23T20:19:37;101702.22;;;16.72;76.83
61337;BME280;47212;41.326;2.104;2024-03-23T20:24:39;101700.59;;;16.66;77.60
61337;BME280;47212;41.326;2.104;2024-03-23T20:29:40;101698.94;;;16.60;77.53
61337;BME280;47212;41.326;2.104;2024-03-23T20:34:46;101697.56;;;16.57;78.08
61337;BME280;47212;41.326;2.104;2024-03-23T20:39:47;101704.44;;;16.60;77.37
61337;BME280;47212;41.326;2.104;2024-03-23T20:44:50;101704.97;;;16.62;77.72
61337;BME280;47212;41.326;2.104;2024-03-23T20:50:02;101697.84;;;16.66;78.13
61337;BME280;47212;41.326;2.104;2024-03-23T20:55:14;101692.88;;;16.73;77.73
61337;BME280;47212;41.326;2.104;2024-03-23T21:00:17;101693.16;;;16.76;76.97
61337;BME280;47212;41.326;2.104;2024-03-23T21:05:25;101690.69;;;16.75;77.22
61337;BME280;47212;41.326;2.104;2024-03-23T21:10:29;101681.06;;;16.72;77.37
61337;BME280;47212;41.326;2.104;2024-03-23T21:15:46;101676.94;;;16.70;77.36
61337;BME280;47212;41.326;2.104;2024-03-23T21:20:56;101678.59;;;16.61;77.77
61337;BME280;47212;41.326;2.104;2024-03-23T21:26:10;101677.50;;;16.56;77.95
61337;BME280;47212;41.326;2.104;2024-03-23T21:31:15;101668.16;;;16.58;77.34
61337;BME280;47212;41.326;2.104;2024-03-23T21:36:21;101677.22;;;16.63;77.52
61337;BME280;47212;41.326;2.104;2024-03-23T21:41:29;101672.81;;;16.62;77.60
61337;BME280;47212;41.326;2.104;2024-03-23T21:46:35;101672.00;;;16.62;77.58
61337;BME280;47212;41.326;2.104;2024-03-23T21:51:37;101665.69;;;16.61;77.56
61337;BME280;47212;41.326;2.104;2024-03-23T21:56:39;101667.59;;;16.61;77.56
61337;BME280;47212;41.326;2.104;2024-03-23T22:01:40;101665.13;;;16.59;77.61
61337;BME280;47212;41.326;2.104;2024-03-23T22:06:42;101667.63;;;16.55;77.84
61337;BME280;47212;41.326;2.104;2024-03-23T22:11:46;101669.28;;;16.51;77.96
61337;BME280;47212;41.326;2.104;2024-03-23T22:16:47;101659.97;;;16.47;77.86
61337;BME280;47212;41.326;2.104;2024-03-23T22:21:51;101657.19;;;16.42;78.34
61337;BME280;47212;41.326;2.104;2024-03-23T22:26:55;101646.19;;;16.42;78.62
61337;BME280;47212;41.326;2.104;2024-03-23T22:31:57;101644.00;;;16.39;78.88
61337;BME280;47212;41.326;2.104;2024-03-23T22:37:00;101638.50;;;16.39;79.17
61337;BME280;47212;41.326;2.104;2024-03-23T22:42:11;101640.72;;;16.37;78.75
61337;BME280;47212;41.326;2.104;2024-03-23T22:47:15;101637.44;;;16.35;78.79
61337;BME280;47212;41.326;2.104;2024-03-23T22:52:17;101636.88;;;16.33;78.74
61337;BME280;47212;41.326;2.104;2024-03-23T22:57:18;101635.78;;;16.34;79.09
61337;BME280;47212;41.326;2.104;2024-03-23T23:02:19;101634.13;;;16.33;78.68
61337;BME280;47212;41.326;2.104;2024-03-23T23:07:22;101635.50;;;16.31;78.93
61337;BME280;47212;41.326;2.104;2024-03-23T23:12:25;101639.09;;;16.26;80.19
61337;BME280;47212;41.326;2.104;2024-03-23T23:17:28;101632.78;;;16.20;79.43
61337;BME280;47212;41.326;2.104;2024-03-23T23:22:34;101629.78;;;16.17;79.86
61337;BME280;47212;41.326;2.104;2024-03-23T23:27:37;101623.19;;;16.13;79.90
61337;BME280;47212;41.326;2.104;2024-03-23T23:32:38;101617.44;;;16.09;80.04
61337;BME280;47212;41.326;2.104;2024-03-23T23:37:45;101610.59;;;16.07;80.22
61337;BME280;47212;41.326;2.104;2024-03-23T23:42:52;101614.97;;;16.08;80.47
61337;BME280;47212;41.326;2.104;2024-03-23T23:48:20;101605.63;;;16.09;80.52
61337;BME280;47212;41.326;2.104;2024-03-23T23:53:29;101608.66;;;16.07;80.97
61337;BME280;47212;41.326;2.104;2024-03-23T23:58:32;101609.47;;;16.08;80.76
